Conesville, Ohio
Current Conditions -  °F | °C
As of 8:53 AM on Friday 28 Nov 2014 (Local Time) from KZZV Reporting Station
Scattered Clouds Scattered Clouds  
Wind Chill: 16°   Ceiling: Unl
Heat Index: 24°   Visibility: 9mi
Dew Point: 18°   Wind: 7mph
Humidity: 77%   Direction: 270°W
Pressure: 30.37"   Gusts: NA
Location:  40.18°N, 81.89°W
Report Text: KZZV 281353Z AUTO 27006KT 9SM SCT038 M04/M08 A3037 RMK AO2 SNE1256 SLP294 P0000 T10441078
Loading
Personal Weather Stations






























Interactive Weather Map New forecast layout! Learn more

10-Day Weather Forecast

Advertisements
Track Severe Weather on mobile